createdAt,value
2018-06-13T00:02:25.305Z,66.10
2018-06-13T00:07:28.560Z,68.60
2018-06-13T00:12:31.958Z,68.20
2018-06-13T00:17:35.176Z,68.80
2018-06-13T00:22:38.346Z,69.00
2018-06-13T00:27:41.534Z,66.90
2018-06-13T00:32:44.899Z,69.50
2018-06-13T00:37:48.398Z,70.50
2018-06-13T00:42:51.721Z,70.70
2018-06-13T00:47:55.034Z,71.90
2018-06-13T00:52:58.206Z,72.30
2018-06-13T00:58:01.556Z,73.30
2018-06-13T01:03:05.018Z,74.30
2018-06-13T01:08:08.375Z,76.10
2018-06-13T01:13:11.876Z,77.60
2018-06-13T01:18:15.025Z,78.20
2018-06-13T01:23:18.205Z,77.40
2018-06-13T01:28:21.358Z,77.20
2018-06-13T01:33:24.719Z,76.80
2018-06-13T01:38:28.136Z,76.50
2018-06-13T01:43:31.306Z,77.30
2018-06-13T01:48:34.594Z,75.90
2018-06-13T01:53:37.896Z,76.60
2018-06-13T01:58:41.344Z,76.80
2018-06-13T02:03:44.713Z,74.90
2018-06-13T02:08:47.858Z,76.10
2018-06-13T02:13:50.971Z,75.90
2018-06-13T02:18:54.483Z,76.80
2018-06-13T02:23:57.792Z,77.90
2018-06-13T02:29:01.107Z,77.90
2018-06-13T02:34:04.388Z,77.60
2018-06-13T02:39:08.131Z,77.10
2018-06-13T02:44:11.294Z,78.40
2018-06-13T02:49:14.478Z,78.30
2018-06-13T02:54:17.751Z,78.60
2018-06-13T02:59:20.896Z,79.60
2018-06-13T03:04:24.031Z,80.10
2018-06-13T03:09:27.276Z,79.90
2018-06-13T03:14:30.551Z,80.10
2018-06-13T03:19:33.882Z,80.50
2018-06-13T03:24:37.299Z,81.30
2018-06-13T03:29:40.366Z,82.00
2018-06-13T03:34:43.815Z,83.00
2018-06-13T03:39:47.020Z,82.80
2018-06-13T03:44:50.542Z,83.10
2018-06-13T03:49:53.770Z,82.70
2018-06-13T03:54:56.871Z,83.50
2018-06-13T04:00:00.118Z,84.00
2018-06-13T04:05:03.563Z,84.00
2018-06-13T04:10:07.072Z,82.80
2018-06-13T04:20:13.798Z,79.00
2018-06-13T04:25:17.015Z,73.10
2018-06-13T04:30:20.167Z,69.40
2018-06-13T04:35:23.531Z,63.90
2018-06-13T04:40:26.793Z,60.30
2018-06-13T04:45:30.073Z,59.60
2018-06-13T04:50:33.434Z,59.60
2018-06-13T04:55:36.852Z,58.00
2018-06-13T05:00:40.607Z,56.90
2018-06-13T05:05:44.012Z,54.80
2018-06-13T05:10:47.503Z,55.40
2018-06-13T05:20:54.340Z,52.40
2018-06-13T05:25:57.839Z,49.70
2018-06-13T05:31:01.142Z,50.50
2018-06-13T05:36:04.674Z,49.90
2018-06-13T05:41:07.859Z,48.90
2018-06-13T05:46:11.294Z,47.10
2018-06-13T05:51:14.696Z,48.20
2018-06-13T05:56:18.115Z,48.90
2018-06-13T06:01:21.309Z,46.10
2018-06-13T06:06:24.735Z,46.40
2018-06-13T06:11:28.988Z,50.60
2018-06-13T06:16:32.228Z,52.20
2018-06-13T06:21:35.574Z,51.60
2018-06-13T06:26:38.987Z,44.40
2018-06-13T06:31:42.156Z,49.90
2018-06-13T06:36:45.295Z,47.40
2018-06-13T06:41:48.596Z,49.00
2018-06-13T06:46:52.047Z,46.70
2018-06-13T06:51:55.191Z,47.50
2018-06-13T06:56:58.365Z,49.80
2018-06-13T07:02:01.571Z,50.30
2018-06-13T07:07:04.746Z,49.10
2018-06-13T07:12:08.143Z,48.00
2018-06-13T07:17:11.429Z,44.80
2018-06-13T07:22:14.775Z,46.20
2018-06-13T07:32:21.292Z,52.10
2018-06-13T07:37:24.448Z,52.20
2018-06-13T07:42:27.803Z,56.70
2018-06-13T07:47:31.107Z,58.20
2018-06-13T07:52:34.289Z,58.70
2018-06-13T07:57:37.627Z,58.60
2018-06-13T08:02:40.887Z,58.30
2018-06-13T08:07:44.139Z,57.80
2018-06-13T08:12:47.460Z,57.30
2018-06-13T08:17:50.599Z,57.70
2018-06-13T08:22:53.989Z,59.40
2018-06-13T08:27:57.703Z,58.50
2018-06-13T08:33:01.074Z,58.00
2018-06-13T08:38:04.716Z,58.70
2018-06-13T08:43:07.866Z,59.20
2018-06-13T08:48:11.439Z,61.10
2018-06-13T08:53:14.573Z,58.90
2018-06-13T08:58:17.840Z,58.70
2018-06-13T09:03:21.175Z,58.00
2018-06-13T09:08:24.595Z,56.50
2018-06-13T09:13:27.881Z,57.60
2018-06-13T09:18:31.049Z,59.00
2018-06-13T09:23:34.524Z,58.60
2018-06-13T09:28:37.692Z,56.70
2018-06-13T09:33:40.983Z,53.90
2018-06-13T09:38:44.092Z,52.90
2018-06-13T09:43:47.518Z,50.40
2018-06-13T09:48:51.759Z,49.40
2018-06-13T09:53:55.039Z,47.90
2018-06-13T09:59:03.900Z,49.00
2018-06-13T10:04:07.145Z,48.60
2018-06-13T10:09:10.453Z,48.30
2018-06-13T10:14:14.053Z,51.90
2018-06-13T10:19:17.327Z,53.10
2018-06-13T10:24:20.426Z,55.00
2018-06-13T10:29:23.579Z,54.10
2018-06-13T10:34:26.994Z,52.70
2018-06-13T10:39:30.141Z,50.30
2018-06-13T10:44:33.381Z,49.90
2018-06-13T10:49:36.704Z,49.50
2018-06-13T10:54:39.849Z,47.90
2018-06-13T10:59:43.123Z,47.40
2018-06-13T11:04:46.554Z,46.30
2018-06-13T11:09:49.825Z,42.90
2018-06-13T11:14:53.162Z,44.70
2018-06-13T11:19:56.718Z,43.20
2018-06-13T11:25:00.089Z,43.30
2018-06-13T11:30:04.310Z,42.90
2018-06-13T11:35:07.928Z,44.90
2018-06-13T11:40:11.314Z,47.40
2018-06-13T11:45:14.462Z,45.30
2018-06-13T11:50:17.813Z,49.50
2018-06-13T11:55:20.980Z,45.20
2018-06-13T12:00:24.424Z,48.00
2018-06-13T12:05:27.673Z,44.30
2018-06-13T12:10:31.087Z,43.00
2018-06-13T12:15:34.710Z,43.20
2018-06-13T12:20:38.216Z,43.20
2018-06-13T12:25:41.499Z,47.30
2018-06-13T12:30:44.774Z,45.00
2018-06-13T12:35:48.162Z,48.10
2018-06-13T12:40:51.478Z,49.20
2018-06-13T12:45:54.600Z,50.90
2018-06-13T12:50:57.858Z,50.60
2018-06-13T12:56:01.283Z,48.90
2018-06-13T13:01:04.785Z,47.50
2018-06-13T13:06:08.003Z,48.90
2018-06-13T13:11:11.227Z,50.90
2018-06-13T13:21:17.829Z,53.70
2018-06-13T13:26:21.263Z,52.80
2018-06-13T13:31:24.580Z,52.50
2018-06-13T13:36:28.042Z,52.80
2018-06-13T13:41:31.571Z,52.50
2018-06-13T13:46:34.977Z,55.20
2018-06-13T13:51:38.130Z,54.50
2018-06-13T13:56:41.486Z,49.50
2018-06-13T14:01:44.638Z,49.50
2018-06-13T14:06:48.019Z,49.10
2018-06-13T14:11:51.335Z,48.00
2018-06-13T14:16:54.727Z,50.30
2018-06-13T14:21:58.088Z,47.80
2018-06-13T14:27:01.357Z,49.30
2018-06-13T14:32:04.549Z,51.60
2018-06-13T14:37:08.379Z,51.70
2018-06-13T14:42:11.537Z,51.20
2018-06-13T14:47:14.845Z,53.10
2018-06-13T14:52:18.351Z,52.80
2018-06-13T14:57:21.575Z,52.90
2018-06-13T15:02:24.800Z,54.60
2018-06-13T15:12:31.680Z,53.40
2018-06-13T15:17:34.933Z,53.90
2018-06-13T15:22:38.361Z,54.10
2018-06-13T15:27:41.622Z,52.90
2018-06-13T15:32:44.871Z,54.10
2018-06-13T15:37:48.289Z,53.70
2018-06-13T15:42:51.475Z,52.30
2018-06-13T15:47:55.116Z,53.70
2018-06-13T15:52:58.449Z,54.20
2018-06-13T15:58:02.140Z,52.20
2018-06-13T16:08:09.150Z,51.50
2018-06-13T16:13:12.669Z,49.90
2018-06-13T16:18:16.417Z,49.50
2018-06-13T16:23:19.867Z,49.70
2018-06-13T16:28:23.094Z,51.50
2018-06-13T16:33:26.642Z,49.20
2018-06-13T16:38:30.063Z,49.20
2018-06-13T16:43:33.260Z,49.30
2018-06-13T16:48:36.721Z,47.70
2018-06-13T16:54:02.415Z,50.60
2018-06-13T16:59:05.639Z,50.20
2018-06-13T17:04:09.208Z,49.00
2018-06-13T17:09:12.483Z,50.90
2018-06-13T17:14:15.752Z,50.80
2018-06-13T17:19:19.394Z,51.60
2018-06-13T17:24:22.600Z,51.50
2018-06-13T17:29:26.061Z,50.80
2018-06-13T17:34:29.491Z,53.40
2018-06-13T17:39:32.794Z,55.80
2018-06-13T17:50:14.668Z,54.30
2018-06-13T17:55:19.724Z,54.20
2018-06-13T18:00:23.502Z,55.60
2018-06-13T18:05:27.337Z,54.90
2018-06-13T18:10:30.806Z,56.00
2018-06-13T18:15:34.120Z,56.20
2018-06-13T18:20:37.512Z,57.20
2018-06-13T18:25:40.728Z,57.90
2018-06-13T18:30:44.052Z,59.60
2018-06-13T18:35:47.849Z,59.90
2018-06-13T18:40:52.115Z,57.50
2018-06-13T18:45:58.070Z,56.00
2018-06-13T18:51:01.540Z,55.50
2018-06-13T18:56:04.933Z,58.70
2018-06-13T19:01:08.354Z,57.20
2018-06-13T19:06:11.775Z,57.30
2018-06-13T19:11:15.351Z,57.10
2018-06-13T19:16:18.664Z,57.30
2018-06-13T19:21:22.165Z,57.20
2018-06-13T19:26:25.749Z,57.30
2018-06-13T19:31:29.244Z,56.90
2018-06-13T19:36:32.600Z,57.40
2018-06-13T19:46:46.996Z,57.40
2018-06-13T19:51:50.145Z,57.70
2018-06-13T19:56:53.393Z,57.70
2018-06-13T20:01:56.571Z,58.30
2018-06-13T20:07:00.113Z,57.90
2018-06-13T20:12:09.036Z,58.10
2018-06-13T20:17:18.019Z,58.10
2018-06-13T20:22:21.586Z,58.40
2018-06-13T20:27:30.928Z,58.70
2018-06-13T20:32:34.884Z,58.30
2018-06-13T20:43:13.648Z,58.90
2018-06-13T20:48:17.134Z,60.00
2018-06-13T20:53:20.717Z,60.90
2018-06-13T20:58:24.551Z,62.00
2018-06-13T21:03:27.959Z,63.70
2018-06-13T21:08:31.209Z,65.60
2018-06-13T21:13:34.455Z,66.90
2018-06-13T21:18:37.986Z,68.50
2018-06-13T21:23:41.281Z,69.00
2018-06-13T21:28:44.725Z,69.70
2018-06-13T21:33:47.927Z,69.00
2018-06-13T21:38:51.101Z,68.60
2018-06-13T21:43:54.315Z,69.30
2018-06-13T21:48:57.847Z,70.40
2018-06-13T21:54:01.121Z,71.00
2018-06-13T21:59:04.454Z,72.10
2018-06-13T22:04:07.732Z,72.50
2018-06-13T22:09:11.650Z,73.70
2018-06-13T22:14:14.974Z,74.20
2018-06-13T22:19:18.400Z,72.40
2018-06-13T22:24:22.032Z,69.10
2018-06-13T22:29:25.399Z,68.10
2018-06-13T22:34:28.842Z,67.20
2018-06-13T22:39:32.149Z,66.40
2018-06-13T22:44:35.661Z,65.30
2018-06-13T22:49:39.120Z,63.90
2018-06-13T22:54:44.584Z,64.50
2018-06-13T22:59:48.047Z,65.60
2018-06-13T23:04:51.337Z,67.80
2018-06-13T23:14:58.085Z,66.50
2018-06-13T23:20:01.493Z,65.70
2018-06-13T23:25:04.967Z,64.20
2018-06-13T23:30:08.238Z,63.10
2018-06-13T23:35:11.505Z,63.10
2018-06-13T23:40:14.691Z,63.70
2018-06-13T23:45:18.249Z,63.70
2018-06-13T23:50:21.490Z,64.50
2018-06-13T23:55:25.779Z,63.30
